sensor_id;sensor_type;location;lat;lon;timestamp;pressure;altitude;pressure_sealevel;temperature;humidity
80323;BME280;69636;52.372;13.610;2023-07-20T00:01:54;100789.84;;;15.60;100.00
80323;BME280;69636;52.372;13.610;2023-07-20T00:04:22;100795.84;;;15.63;100.00
80323;BME280;69636;52.372;13.610;2023-07-20T00:06:50;100788.84;;;15.61;100.00
80323;BME280;69636;52.372;13.610;2023-07-20T00:09:17;100789.28;;;15.65;100.00
80323;BME280;69636;52.372;13.610;2023-07-20T00:11:49;100784.13;;;15.64;100.00
80323;BME280;69636;52.372;13.610;2023-07-20T00:14:17;100788.47;;;15.65;100.00
80323;BME280;69636;52.372;13.610;2023-07-20T00:16:46;100794.66;;;15.65;100.00
80323;BME280;69636;52.372;13.610;2023-07-20T00:19:14;100791.13;;;15.65;100.00
80323;BME280;69636;52.372;13.610;2023-07-20T00:21:41;100786.81;;;15.64;100.00
80323;BME280;69636;52.372;13.610;2023-07-20T00:24:09;100789.66;;;15.62;100.00
80323;BME280;69636;52.372;13.610;2023-07-20T00:26:36;100787.16;;;15.60;100.00
80323;BME280;69636;52.372;13.610;2023-07-20T00:29:04;100789.56;;;15.55;100.00
80323;BME280;69636;52.372;13.610;2023-07-20T00:31:32;100786.56;;;15.58;100.00
80323;BME280;69636;52.372;13.610;2023-07-20T00:34:01;100789.22;;;15.58;100.00
80323;BME280;69636;52.372;13.610;2023-07-20T00:36:29;100789.22;;;15.58;100.00
80323;BME280;69636;52.372;13.610;2023-07-20T00:39:00;100789.22;;;15.58;100.00
80323;BME280;69636;52.372;13.610;2023-07-20T00:41:28;100782.22;;;15.57;100.00
80323;BME280;69636;52.372;13.610;2023-07-20T00:43:55;100789.56;;;15.55;100.00
80323;BME280;69636;52.372;13.610;2023-07-20T00:46:31;100781.19;;;15.58;100.00
80323;BME280;69636;52.372;13.610;2023-07-20T00:49:00;100784.72;;;15.59;100.00
80323;BME280;69636;52.372;13.610;2023-07-20T00:51:28;100781.38;;;15.57;100.00
80323;BME280;69636;52.372;13.610;2023-07-20T00:53:57;100792.72;;;15.59;100.00
80323;BME280;69636;52.372;13.610;2023-07-20T00:56:24;100785.59;;;15.66;100.00
80323;BME280;69636;52.372;13.610;2023-07-20T00:58:52;100789.28;;;15.65;100.00
80323;BME280;69636;52.372;13.610;2023-07-20T01:01:21;100782.03;;;15.59;100.00
80323;BME280;69636;52.372;13.610;2023-07-20T01:03:49;100781.38;;;15.57;100.00
80323;BME280;69636;52.372;13.610;2023-07-20T01:06:26;100787.91;;;15.54;100.00
80323;BME280;69636;52.372;13.610;2023-07-20T01:09:07;100791.50;;;15.47;100.00
80323;BME280;69636;52.372;13.610;2023-07-20T01:11:39;100783.66;;;15.45;100.00
80323;BME280;69636;52.372;13.610;2023-07-20T01:14:11;100786.69;;;15.42;100.00
80323;BME280;69636;52.372;13.610;2023-07-20T01:16:39;100795.25;;;15.38;100.00
80323;BME280;69636;52.372;13.610;2023-07-20T01:19:06;100792.94;;;15.35;100.00
80323;BME280;69636;52.372;13.610;2023-07-20T01:21:41;100801.16;;;15.33;100.00
80323;BME280;69636;52.372;13.610;2023-07-20T01:24:30;100792.94;;;15.35;100.00
80323;BME280;69636;52.372;13.610;2023-07-20T01:27:25;100795.53;;;15.28;100.00
80323;BME280;69636;52.372;13.610;2023-07-20T01:30:18;100801.91;;;15.27;100.00
80323;BME280;69636;52.372;13.610;2023-07-20T01:32:54;100807.25;;;15.27;100.00
80323;BME280;69636;52.372;13.610;2023-07-20T01:35:28;100809.19;;;15.33;100.00
80323;BME280;69636;52.372;13.610;2023-07-20T01:37:58;100802.38;;;15.45;100.00
80323;BME280;69636;52.372;13.610;2023-07-20T01:40:27;100807.91;;;15.44;100.00
80323;BME280;69636;52.372;13.610;2023-07-20T01:42:55;100796.28;;;15.37;100.00
80323;BME280;69636;52.372;13.610;2023-07-20T01:45:22;100800.34;;;15.33;100.00
80323;BME280;69636;52.372;13.610;2023-07-20T01:47:49;100801.53;;;15.30;100.00
80323;BME280;69636;52.372;13.610;2023-07-20T01:50:19;100798.56;;;15.25;100.00
80323;BME280;69636;52.372;13.610;2023-07-20T01:52:46;100798.22;;;15.28;100.00
80323;BME280;69636;52.372;13.610;2023-07-20T01:55:14;100795.72;;;15.26;100.00
80323;BME280;69636;52.372;13.610;2023-07-20T01:57:42;100800.06;;;15.27;100.00
80323;BME280;69636;52.372;13.610;2023-07-20T02:00:10;100799.22;;;15.27;100.00
80323;BME280;69636;52.372;13.610;2023-07-20T02:02:41;100794.72;;;15.27;100.00
80323;BME280;69636;52.372;13.610;2023-07-20T02:05:08;100793.53;;;15.30;100.00
80323;BME280;69636;52.372;13.610;2023-07-20T02:07:39;100797.75;;;15.24;100.00
80323;BME280;69636;52.372;13.610;2023-07-20T02:10:07;100797.63;;;15.18;100.00
80323;BME280;69636;52.372;13.610;2023-07-20T02:12:36;100795.31;;;15.15;100.00
80323;BME280;69636;52.372;13.610;2023-07-20T02:15:05;100797.81;;;15.16;100.00
80323;BME280;69636;52.372;13.610;2023-07-20T02:17:32;100794.50;;;15.14;100.00
80323;BME280;69636;52.372;13.610;2023-07-20T02:20:00;100798.81;;;15.15;100.00
80323;BME280;69636;52.372;13.610;2023-07-20T02:22:28;100785.63;;;15.14;100.00
80323;BME280;69636;52.372;13.610;2023-07-20T02:24:57;100788.03;;;15.09;100.00
80323;BME280;69636;52.372;13.610;2023-07-20T02:27:25;100793.28;;;15.02;100.00
80323;BME280;69636;52.372;13.610;2023-07-20T02:29:52;100793.16;;;14.96;100.00
80323;BME280;69636;52.372;13.610;2023-07-20T02:32:20;100784.50;;;14.93;100.00
80323;BME280;69636;52.372;13.610;2023-07-20T02:34:48;100787.72;;;14.89;100.00
80323;BME280;69636;52.372;13.610;2023-07-20T02:37:16;100788.91;;;14.86;100.00
80323;BME280;69636;52.372;13.610;2023-07-20T02:39:45;100792.22;;;14.88;100.00
80323;BME280;69636;52.372;13.610;2023-07-20T02:42:15;100792.69;;;14.92;100.00
80323;BME280;69636;52.372;13.610;2023-07-20T02:44:42;100790.84;;;14.92;100.00
80323;BME280;69636;52.372;13.610;2023-07-20T02:47:11;100793.41;;;14.86;100.00
80323;BME280;69636;52.372;13.610;2023-07-20T02:49:38;100800.34;;;14.80;100.00
80323;BME280;69636;52.372;13.610;2023-07-20T02:52:06;100797.38;;;14.75;100.00
80323;BME280;69636;52.372;13.610;2023-07-20T02:54:34;100808.09;;;14.67;100.00
80323;BME280;69636;52.372;13.610;2023-07-20T02:57:01;100802.28;;;14.64;100.00
80323;BME280;69636;52.372;13.610;2023-07-20T02:59:31;100806.09;;;14.69;100.00
80323;BME280;69636;52.372;13.610;2023-07-20T03:01:58;100812.09;;;14.71;100.00
80323;BME280;69636;52.372;13.610;2023-07-20T03:04:26;100811.91;;;14.73;100.00
80323;BME280;69636;52.372;13.610;2023-07-20T03:06:53;100814.41;;;14.74;100.00
80323;BME280;69636;52.372;13.610;2023-07-20T03:09:21;100823.44;;;14.73;100.00
80323;BME280;69636;52.372;13.610;2023-07-20T03:11:49;100823.44;;;14.73;100.00
80323;BME280;69636;52.372;13.610;2023-07-20T03:14:16;100818.75;;;14.75;100.00
80323;BME280;69636;52.372;13.610;2023-07-20T03:16:46;100828.41;;;14.76;100.00
80323;BME280;69636;52.372;13.610;2023-07-20T03:19:15;100830.34;;;14.82;100.00
80323;BME280;69636;52.372;13.610;2023-07-20T03:21:43;100830.19;;;14.84;100.00
80323;BME280;69636;52.372;13.610;2023-07-20T03:24:10;100834.50;;;14.85;100.00
80323;BME280;69636;52.372;13.610;2023-07-20T03:26:38;100838.66;;;14.87;100.00
80323;BME280;69636;52.372;13.610;2023-07-20T03:29:05;100835.66;;;14.90;100.00
80323;BME280;69636;52.372;13.610;2023-07-20T03:31:33;100840.34;;;14.88;100.00
80323;BME280;69636;52.372;13.610;2023-07-20T03:34:02;100836.66;;;14.89;100.00
80323;BME280;69636;52.372;13.610;2023-07-20T03:36:30;100842.84;;;14.90;100.00
80323;BME280;69636;52.372;13.610;2023-07-20T03:38:59;100835.28;;;14.93;100.00
80323;BME280;69636;52.372;13.610;2023-07-20T03:41:27;100842.00;;;14.89;100.00
80323;BME280;69636;52.372;13.610;2023-07-20T03:43:54;100836.28;;;14.92;100.00
80323;BME280;69636;52.372;13.610;2023-07-20T03:46:22;100831.97;;;14.91;100.00
80323;BME280;69636;52.372;13.610;2023-07-20T03:48:52;100836.28;;;14.92;100.00
80323;BME280;69636;52.372;13.610;2023-07-20T03:51:21;100834.63;;;14.91;100.00
80323;BME280;69636;52.372;13.610;2023-07-20T03:53:48;100838.25;;;14.99;100.00
80323;BME280;69636;52.372;13.610;2023-07-20T03:56:16;100827.75;;;14.97;100.00
80323;BME280;69636;52.372;13.610;2023-07-20T03:58:45;100842.94;;;14.97;100.00
80323;BME280;69636;52.372;13.610;2023-07-20T04:01:12;100844.97;;;14.94;100.00
80323;BME280;69636;52.372;13.610;2023-07-20T04:03:40;100843.31;;;14.93;100.00
80323;BME280;69636;52.372;13.610;2023-07-20T04:06:08;100846.63;;;14.96;100.00
80323;BME280;69636;52.372;13.610;2023-07-20T04:08:37;100849.31;;;14.96;100.00
80323;BME280;69636;52.372;13.610;2023-07-20T04:11:05;100860.31;;;15.01;99.87
80323;BME280;69636;52.372;13.610;2023-07-20T04:13:33;100849.25;;;15.04;99.30
80323;BME280;69636;52.372;13.610;2023-07-20T04:16:01;100842.59;;;15.00;99.92
80323;BME280;69636;52.372;13.610;2023-07-20T04:18:29;100846.41;;;15.05;99.39
80323;BME280;69636;52.372;13.610;2023-07-20T04:20:56;100839.66;;;15.09;99.74
80323;BME280;69636;52.372;13.610;2023-07-20T04:23:24;100835.44;;;15.15;99.30
80323;BME280;69636;52.372;13.610;2023-07-20T04:25:54;100844.47;;;15.14;99.32
80323;BME280;69636;52.372;13.610;2023-07-20T04:28:23;100851.00;;;15.11;99.56
80323;BME280;69636;52.372;13.610;2023-07-20T04:30:50;100848.81;;;15.15;99.45
80323;BME280;69636;52.372;13.610;2023-07-20T04:33:18;100860.03;;;15.10;99.53
80323;BME280;69636;52.372;13.610;2023-07-20T04:35:49;100855.16;;;15.14;99.30
80323;BME280;69636;52.372;13.610;2023-07-20T04:38:17;100854.63;;;15.18;99.75
80323;BME280;69636;52.372;13.610;2023-07-20T04:40:46;100857.94;;;15.20;99.39
80323;BME280;69636;52.372;13.610;2023-07-20T04:43:16;100852.44;;;15.22;99.22
80323;BME280;69636;52.372;13.610;2023-07-20T04:45:43;100862.75;;;15.25;99.48
80323;BME280;69636;52.372;13.610;2023-07-20T04:48:12;100860.19;;;15.32;98.92
80323;BME280;69636;52.372;13.610;2023-07-20T04:50:40;100861.66;;;15.34;98.49
80323;BME280;69636;52.372;13.610;2023-07-20T04:53:09;100850.75;;;15.21;98.82
80323;BME280;69636;52.372;13.610;2023-07-20T04:55:37;100852.72;;;15.27;98.28
80323;BME280;69636;52.372;13.610;2023-07-20T04:58:04;100856.69;;;15.31;98.39
80323;BME280;69636;52.372;13.610;2023-07-20T05:00:38;100855.47;;;15.34;97.70
80323;BME280;69636;52.372;13.610;2023-07-20T05:03:06;100856.97;;;15.36;97.98
80323;BME280;69636;52.372;13.610;2023-07-20T05:05:34;100861.53;;;15.50;97.62
80323;BME280;69636;52.372;13.610;2023-07-20T05:08:01;100863.31;;;15.58;96.94
80323;BME280;69636;52.372;13.610;2023-07-20T05:10:32;100862.00;;;15.54;96.91
80323;BME280;69636;52.372;13.610;2023-07-20T05:13:00;100862.34;;;15.51;97.29
80323;BME280;69636;52.372;13.610;2023-07-20T05:15:28;100856.97;;;15.59;96.93
80323;BME280;69636;52.372;13.610;2023-07-20T05:17:56;100870.22;;;15.67;96.85
80323;BME280;69636;52.372;13.610;2023-07-20T05:20:24;100856.38;;;15.64;95.83
80323;BME280;69636;52.372;13.610;2023-07-20T05:22:52;100861.25;;;15.60;96.46
80323;BME280;69636;52.372;13.610;2023-07-20T05:25:20;100875.97;;;15.79;95.96
80323;BME280;69636;52.372;13.610;2023-07-20T05:27:48;100876.63;;;15.81;95.40
80323;BME280;69636;52.372;13.610;2023-07-20T05:30:16;100873.66;;;15.90;94.83
80323;BME280;69636;52.372;13.610;2023-07-20T05:32:44;100868.75;;;15.94;94.56
80323;BME280;69636;52.372;13.610;2023-07-20T05:35:14;100868.84;;;15.86;93.34
80323;BME280;69636;52.372;13.610;2023-07-20T05:37:42;100871.53;;;16.01;92.84
80323;BME280;69636;52.372;13.610;2023-07-20T05:40:10;100866.41;;;16.20;92.79
80323;BME280;69636;52.372;13.610;2023-07-20T05:42:38;100871.31;;;16.32;91.28
80323;BME280;69636;52.372;13.610;2023-07-20T05:45:06;100878.34;;;16.33;90.64
80323;BME280;69636;52.372;13.610;2023-07-20T05:47:34;100873.81;;;16.33;90.11
80323;BME280;69636;52.372;13.610;2023-07-20T05:50:01;100869.75;;;16.22;89.75
80323;BME280;69636;52.372;13.610;2023-07-20T05:52:30;100870.66;;;16.29;90.97
80323;BME280;69636;52.372;13.610;2023-07-20T05:54:58;100870.28;;;16.33;90.77
80323;BME280;69636;52.372;13.610;2023-07-20T05:57:25;100869.47;;;16.32;88.95
80323;BME280;69636;52.372;13.610;2023-07-20T05:59:53;100878.56;;;16.38;89.27
80323;BME280;69636;52.372;13.610;2023-07-20T06:02:22;100879.38;;;16.53;89.48
80323;BME280;69636;52.372;13.610;2023-07-20T06:04:51;100881.97;;;16.61;88.95
80323;BME280;69636;52.372;13.610;2023-07-20T06:07:18;100871.16;;;16.54;87.58
80323;BME280;69636;52.372;13.610;2023-07-20T06:09:48;100888.50;;;16.22;89.05
80323;BME280;69636;52.372;13.610;2023-07-20T06:12:15;100890.44;;;16.14;89.93
80323;BME280;69636;52.372;13.610;2023-07-20T06:14:43;100893.84;;;16.22;89.36
80323;BME280;69636;52.372;13.610;2023-07-20T06:17:10;100896.44;;;16.31;88.31
80323;BME280;69636;52.372;13.610;2023-07-20T06:19:38;100897.50;;;16.51;88.44
80323;BME280;69636;52.372;13.610;2023-07-20T06:22:06;100895.06;;;16.35;86.62
80323;BME280;69636;52.372;13.610;2023-07-20T06:24:33;100898.44;;;16.43;85.89
80323;BME280;69636;52.372;13.610;2023-07-20T06:27:03;100899.16;;;16.52;85.60
80323;BME280;69636;52.372;13.610;2023-07-20T06:29:32;100909.78;;;16.60;85.38
80323;BME280;69636;52.372;13.610;2023-07-20T06:32:00;100905.44;;;16.59;85.01
80323;BME280;69636;52.372;13.610;2023-07-20T06:34:27;100904.41;;;16.60;84.05
80323;BME280;69636;52.372;13.610;2023-07-20T06:36:55;100909.31;;;16.71;83.32
80323;BME280;69636;52.372;13.610;2023-07-20T06:39:23;100897.75;;;16.92;83.54
80323;BME280;69636;52.372;13.610;2023-07-20T06:41:53;100901.41;;;17.06;82.94
80323;BME280;69636;52.372;13.610;2023-07-20T06:44:24;100898.63;;;17.14;82.97
80323;BME280;69636;52.372;13.610;2023-07-20T06:46:55;100901.41;;;17.27;82.59
80323;BME280;69636;52.372;13.610;2023-07-20T06:49:26;100908.31;;;17.43;80.31
80323;BME280;69636;52.372;13.610;2023-07-20T06:51:53;100911.16;;;17.35;81.54
80323;BME280;69636;52.372;13.610;2023-07-20T06:54:21;100908.81;;;17.25;80.71
80323;BME280;69636;52.372;13.610;2023-07-20T06:56:50;100911.56;;;17.32;81.47
80323;BME280;69636;52.372;13.610;2023-07-20T06:59:23;100916.72;;;17.33;80.66
80323;BME280;69636;52.372;13.610;2023-07-20T07:01:50;100922.19;;;17.46;79.10
80323;BME280;69636;52.372;13.610;2023-07-20T07:04:18;100915.91;;;17.60;79.74
80323;BME280;69636;52.372;13.610;2023-07-20T07:06:46;100907.72;;;17.69;79.08
80323;BME280;69636;52.372;13.610;2023-07-20T07:09:13;100916.81;;;17.68;78.87
80323;BME280;69636;52.372;13.610;2023-07-20T07:11:42;100917.97;;;17.58;78.81
80323;BME280;69636;52.372;13.610;2023-07-20T07:14:12;100918.09;;;17.50;80.25
80323;BME280;69636;52.372;13.610;2023-07-20T07:16:43;100917.38;;;17.35;80.16
80323;BME280;69636;52.372;13.610;2023-07-20T07:19:10;100919.06;;;17.43;80.41
80323;BME280;69636;52.372;13.610;2023-07-20T07:21:38;100926.78;;;17.52;78.88
80323;BME280;69636;52.372;13.610;2023-07-20T07:24:06;100927.81;;;17.51;77.45
80323;BME280;69636;52.372;13.610;2023-07-20T07:26:36;100924.38;;;17.85;77.68
80323;BME280;69636;52.372;13.610;2023-07-20T07:29:03;100926.06;;;17.93;75.67
80323;BME280;69636;52.372;13.610;2023-07-20T07:31:33;100921.41;;;18.08;75.06
80323;BME280;69636;52.372;13.610;2023-07-20T07:34:02;100929.38;;;17.95;74.79
80323;BME280;69636;52.372;13.610;2023-07-20T07:36:30;100928.44;;;17.75;75.74
80323;BME280;69636;52.372;13.610;2023-07-20T07:38:57;100926.03;;;17.86;74.24
80323;BME280;69636;52.372;13.610;2023-07-20T07:41:28;100931.22;;;17.88;73.84
80323;BME280;69636;52.372;13.610;2023-07-20T07:43:55;100930.53;;;17.79;74.19
80323;BME280;69636;52.372;13.610;2023-07-20T07:46:23;100932.28;;;17.93;73.67
80323;BME280;69636;52.372;13.610;2023-07-20T07:48:51;100922.84;;;18.04;72.71
80323;BME280;69636;52.372;13.610;2023-07-20T07:51:20;100936.00;;;17.92;72.75
80323;BME280;69636;52.372;13.610;2023-07-20T07:53:48;100935.38;;;17.90;73.28
80323;BME280;69636;52.372;13.610;2023-07-20T07:56:15;100928.75;;;18.27;73.38
80323;BME280;69636;52.372;13.610;2023-07-20T07:58:43;100926.72;;;18.36;72.89
80323;BME280;69636;52.372;13.610;2023-07-20T08:01:11;100926.34;;;18.46;70.92
80323;BME280;69636;52.372;13.610;2023-07-20T08:03:38;100929.09;;;18.59;71.25
80323;BME280;69636;52.372;13.610;2023-07-20T08:06:07;100934.34;;;18.67;70.42
80323;BME280;69636;52.372;13.610;2023-07-20T08:08:36;100932.88;;;18.71;70.16
80323;BME280;69636;52.372;13.610;2023-07-20T08:11:04;100933.31;;;18.68;67.16
80323;BME280;69636;52.372;13.610;2023-07-20T08:13:34;100929.28;;;18.57;67.76
80323;BME280;69636;52.372;13.610;2023-07-20T08:16:02;100928.97;;;18.74;68.25
80323;BME280;69636;52.372;13.610;2023-07-20T08:18:30;100925.31;;;18.94;67.30
80323;BME280;69636;52.372;13.610;2023-07-20T08:20:58;100930.28;;;19.04;66.02
80323;BME280;69636;52.372;13.610;2023-07-20T08:23:26;100934.81;;;19.04;66.19
80323;BME280;69636;52.372;13.610;2023-07-20T08:25:55;100933.19;;;18.96;65.83
80323;BME280;69636;52.372;13.610;2023-07-20T08:28:22;100936.50;;;19.05;64.94
80323;BME280;69636;52.372;13.610;2023-07-20T08:30:50;100937.38;;;19.38;65.69
80323;BME280;69636;52.372;13.610;2023-07-20T08:33:18;100943.78;;;19.77;65.67
80323;BME280;69636;52.372;13.610;2023-07-20T08:35:46;100939.03;;;19.92;64.74
80323;BME280;69636;52.372;13.610;2023-07-20T08:38:14;100952.31;;;19.67;64.66
80323;BME280;69636;52.372;13.610;2023-07-20T08:40:44;100946.69;;;19.42;65.28
80323;BME280;69636;52.372;13.610;2023-07-20T08:43:14;100944.34;;;19.06;65.79
80323;BME280;69636;52.372;13.610;2023-07-20T08:45:44;100954.25;;;18.86;66.16
80323;BME280;69636;52.372;13.610;2023-07-20T08:48:12;100946.06;;;19.20;65.24
80323;BME280;69636;52.372;13.610;2023-07-20T08:50:40;100947.03;;;18.99;66.79
80323;BME280;69636;52.372;13.610;2023-07-20T08:53:10;100953.44;;;18.98;66.80
80323;BME280;69636;52.372;13.610;2023-07-20T08:55:38;100956.25;;;18.64;67.11
80323;BME280;69636;52.372;13.610;2023-07-20T08:58:08;100953.28;;;19.26;65.79
80323;BME280;69636;52.372;13.610;2023-07-20T09:00:38;100954.31;;;20.18;62.34
80323;BME280;69636;52.372;13.610;2023-07-20T09:03:06;100956.00;;;19.99;63.27
80323;BME280;69636;52.372;13.610;2023-07-20T09:05:35;100951.47;;;19.86;63.42
80323;BME280;69636;52.372;13.610;2023-07-20T09:08:03;100956.84;;;19.99;63.13
80323;BME280;69636;52.372;13.610;2023-07-20T09:10:30;100959.75;;;19.85;61.43
80323;BME280;69636;52.372;13.610;2023-07-20T09:12:57;100964.06;;;21.15;58.34
80323;BME280;69636;52.372;13.610;2023-07-20T09:15:25;100948.56;;;22.94;51.81
80323;BME280;69636;52.372;13.610;2023-07-20T09:17:54;100956.13;;;23.34;51.33
80323;BME280;69636;52.372;13.610;2023-07-20T09:20:23;100962.75;;;21.80;53.69
80323;BME280;69636;52.372;13.610;2023-07-20T09:22:51;100958.03;;;20.23;59.03
80323;BME280;69636;52.372;13.610;2023-07-20T09:25:19;100958.31;;;19.69;61.31
80323;BME280;69636;52.372;13.610;2023-07-20T09:27:49;100953.03;;;21.23;56.46
80323;BME280;69636;52.372;13.610;2023-07-20T09:30:19;100948.91;;;22.68;53.52
80323;BME280;69636;52.372;13.610;2023-07-20T09:32:48;100949.34;;;24.01;50.96
80323;BME280;69636;52.372;13.610;2023-07-20T09:35:21;100957.03;;;23.81;48.17
80323;BME280;69636;52.372;13.610;2023-07-20T09:37:57;100953.84;;;22.89;50.38
80323;BME280;69636;52.372;13.610;2023-07-20T09:40:28;100953.81;;;23.08;51.52
80323;BME280;69636;52.372;13.610;2023-07-20T09:42:59;100959.41;;;22.94;52.98
80323;BME280;69636;52.372;13.610;2023-07-20T09:45:29;100965.41;;;21.62;53.61
80323;BME280;69636;52.372;13.610;2023-07-20T09:48:06;100953.22;;;20.90;55.62
80323;BME280;69636;52.372;13.610;2023-07-20T09:50:49;100957.16;;;20.43;56.94
80323;BME280;69636;52.372;13.610;2023-07-20T09:53:18;100959.16;;;20.60;57.88
80323;BME280;69636;52.372;13.610;2023-07-20T09:55:47;100957.97;;;20.37;57.46
80323;BME280;69636;52.372;13.610;2023-07-20T09:58:15;100962.22;;;19.80;59.41
80323;BME280;69636;52.372;13.610;2023-07-20T10:00:43;100964.31;;;19.64;60.70
80323;BME280;69636;52.372;13.610;2023-07-20T10:03:18;100966.00;;;19.65;59.51
80323;BME280;69636;52.372;13.610;2023-07-20T10:05:54;100963.16;;;20.31;59.87
80323;BME280;69636;52.372;13.610;2023-07-20T10:08:25;100955.19;;;21.89;55.35
80323;BME280;69636;52.372;13.610;2023-07-20T10:10:57;100959.16;;;23.26;50.74
80323;BME280;69636;52.372;13.610;2023-07-20T10:13:27;100951.00;;;23.56;47.54
80323;BME280;69636;52.372;13.610;2023-07-20T10:16:01;100958.81;;;22.74;49.72
80323;BME280;69636;52.372;13.610;2023-07-20T10:18:35;100953.22;;;22.03;50.80
80323;BME280;69636;52.372;13.610;2023-07-20T10:21:08;100941.63;;;21.71;51.69
80323;BME280;69636;52.372;13.610;2023-07-20T10:23:40;100944.53;;;21.94;52.42
80323;BME280;69636;52.372;13.610;2023-07-20T10:26:09;100939.91;;;22.38;51.02
80323;BME280;69636;52.372;13.610;2023-07-20T10:28:38;100940.09;;;21.81;52.04
80323;BME280;69636;52.372;13.610;2023-07-20T10:31:07;100934.47;;;21.33;52.84
80323;BME280;69636;52.372;13.610;2023-07-20T10:33:35;100946.91;;;21.03;53.26
80323;BME280;69636;52.372;13.610;2023-07-20T10:36:04;100940.81;;;21.45;54.14
80323;BME280;69636;52.372;13.610;2023-07-20T10:38:41;100934.81;;;22.48;52.50
80323;BME280;69636;52.372;13.610;2023-07-20T10:41:19;100935.19;;;22.51;52.02
80323;BME280;69636;52.372;13.610;2023-07-20T10:43:47;100941.13;;;22.23;51.91
80323;BME280;69636;52.372;13.610;2023-07-20T10:46:33;100947.59;;;22.04;51.78
80323;BME280;69636;52.372;13.610;2023-07-20T10:49:02;100945.78;;;21.48;52.58
80323;BME280;69636;52.372;13.610;2023-07-20T10:51:39;100948.47;;;21.17;54.19
80323;BME280;69636;52.372;13.610;2023-07-20T10:57:30;100942.09;;;21.86;53.90
80323;BME280;69636;52.372;13.610;2023-07-20T11:00:10;100944.28;;;22.39;52.78
80323;BME280;69636;52.372;13.610;2023-07-20T11:02:45;100944.34;;;21.71;53.00
80323;BME280;69636;52.372;13.610;2023-07-20T11:05:35;100943.56;;;21.63;53.70
80323;BME280;69636;52.372;13.610;2023-07-20T11:08:04;100950.75;;;21.51;54.02
80323;BME280;69636;52.372;13.610;2023-07-20T11:10:33;100952.69;;;20.75;55.38
80323;BME280;69636;52.372;13.610;2023-07-20T11:13:20;100957.06;;;19.98;57.56
80323;BME280;69636;52.372;13.610;2023-07-20T11:16:02;100953.69;;;20.03;57.54
80323;BME280;69636;52.372;13.610;2023-07-20T11:18:33;100954.03;;;20.32;58.63
80323;BME280;69636;52.372;13.610;2023-07-20T11:21:14;100950.63;;;20.70;57.99
80323;BME280;69636;52.372;13.610;2023-07-20T11:23:43;100948.94;;;20.76;57.00
80323;BME280;69636;52.372;13.610;2023-07-20T11:26:12;100958.72;;;20.70;56.24
80323;BME280;69636;52.372;13.610;2023-07-20T11:28:39;100957.91;;;20.63;56.98
80323;BME280;69636;52.372;13.610;2023-07-20T11:31:07;100961.28;;;20.52;57.70
80323;BME280;69636;52.372;13.610;2023-07-20T11:33:34;100958.25;;;20.22;57.92
80323;BME280;69636;52.372;13.610;2023-07-20T11:36:04;100957.22;;;20.10;59.29
80323;BME280;69636;52.372;13.610;2023-07-20T11:38:53;100961.56;;;20.04;58.35
80323;BME280;69636;52.372;13.610;2023-07-20T11:41:22;100960.59;;;19.59;60.25
80323;BME280;69636;52.372;13.610;2023-07-20T11:43:50;100968.47;;;19.74;60.83
80323;BME280;69636;52.372;13.610;2023-07-20T11:46:17;100968.25;;;19.95;60.47
80323;BME280;69636;52.372;13.610;2023-07-20T11:48:45;100970.53;;;19.85;59.88
80323;BME280;69636;52.372;13.610;2023-07-20T11:51:14;100971.34;;;19.52;61.68
80323;BME280;69636;52.372;13.610;2023-07-20T11:53:41;100973.41;;;19.37;61.67
80323;BME280;69636;52.372;13.610;2023-07-20T11:56:10;100966.56;;;19.41;61.85
80323;BME280;69636;52.372;13.610;2023-07-20T11:58:44;100973.66;;;19.62;61.50
80323;BME280;69636;52.372;13.610;2023-07-20T12:01:12;100971.16;;;19.74;59.35
80323;BME280;69636;52.372;13.610;2023-07-20T12:03:40;100973.03;;;19.67;59.13
80323;BME280;69636;52.372;13.610;2023-07-20T12:06:09;100970.94;;;19.82;59.47
80323;BME280;69636;52.372;13.610;2023-07-20T12:08:42;100966.59;;;19.81;59.26
80323;BME280;69636;52.372;13.610;2023-07-20T12:11:10;100968.66;;;19.92;59.14
80323;BME280;69636;52.372;13.610;2023-07-20T12:13:38;100971.19;;;20.64;57.35
80323;BME280;69636;52.372;13.610;2023-07-20T12:16:12;100972.06;;;20.96;56.99
80323;BME280;69636;52.372;13.610;2023-07-20T12:18:41;100967.50;;;20.97;56.54
80323;BME280;69636;52.372;13.610;2023-07-20T12:21:10;100972.44;;;20.62;57.04
80323;BME280;69636;52.372;13.610;2023-07-20T12:23:39;100966.56;;;20.78;57.33
80323;BME280;69636;52.372;13.610;2023-07-20T12:26:07;100968.88;;;20.68;57.43
80323;BME280;69636;52.372;13.610;2023-07-20T12:28:38;100971.72;;;21.18;55.75
80323;BME280;69636;52.372;13.610;2023-07-20T12:31:06;100957.28;;;21.87;53.87
80323;BME280;69636;52.372;13.610;2023-07-20T12:33:38;100960.91;;;21.99;52.79
80323;BME280;69636;52.372;13.610;2023-07-20T12:36:05;100957.66;;;22.52;51.93
80323;BME280;69636;52.372;13.610;2023-07-20T12:38:33;100957.97;;;23.63;49.09
80323;BME280;69636;52.372;13.610;2023-07-20T12:41:09;100961.50;;;23.64;48.13
80323;BME280;69636;52.372;13.610;2023-07-20T12:43:37;100959.75;;;22.86;51.06
80323;BME280;69636;52.372;13.610;2023-07-20T12:46:05;100956.16;;;22.19;51.42
80323;BME280;69636;52.372;13.610;2023-07-20T12:48:32;100957.06;;;22.50;51.11
80323;BME280;69636;52.372;13.610;2023-07-20T12:51:05;100965.03;;;22.08;51.78
80323;BME280;69636;52.372;13.610;2023-07-20T12:53:33;100958.66;;;21.96;52.99